This is the latest recevied weather packets stored in our database for station/object N4NVD-13. If no packets are shown the sender has not sent any weather packets the latest 10 day(s).
| Time | Temp. | Humidity | Pressure | Rain* | Wind** | Luminosity | Snow |
|---|---|---|---|---|---|---|---|
| 1777756676 | 25° C | 53% | 1019 hPa | 0 mm | - | 336 W/m² | - |
| 1777756372 | 23.89° C | 51% | 1019.1 hPa | 0 mm | - | 410 W/m² | - |
| 1777756070 | 24.44° C | 56% | 1019.2 hPa | 0 mm | - | 584 W/m² | - |
| 1777755767 | 23.33° C | 53% | 1019 hPa | 0 mm | - | 542 W/m² | - |
| 1777755464 | 25° C | 55% | 1019.2 hPa | 0 mm | - | 684 W/m² | - |
| 1777755160 | 23.89° C | 52% | 1019.4 hPa | 0 mm | - | 640 W/m² | - |
| 1777754858 | 23.33° C | 54% | 1019.4 hPa | 0 mm | - | 478 W/m² | - |
| 1777754555 | 23.89° C | 52% | 1019.2 hPa | 0 mm | - | 635 W/m² | - |
| 1777754252 | 23.89° C | 53% | 1019.2 hPa | 0 mm | - | 690 W/m² | - |
| 1777753950 | 23.33° C | 53% | 1019.4 hPa | 0 mm | - | 736 W/m² | - |
| 1777753644 | 23.89° C | 58% | 1019.3 hPa | 0 mm | - | 651 W/m² | - |
| 1777753343 | 23.89° C | 59% | 1019.6 hPa | 0 mm | - | 674 W/m² | - |
| 1777753040 | 23.33° C | 54% | 1019.6 hPa | 0 mm | - | 158 W/m² | - |
| 1777752736 | 23.33° C | 54% | 1019.5 hPa | 0 mm | - | 816 W/m² | - |
| 1777752432 | 22.78° C | 56% | 1019.7 hPa | 0 mm | - | 656 W/m² | - |
| 1777752129 | 22.78° C | 55% | 1019.6 hPa | 0 mm | - | 542 W/m² | - |
| 1777751827 | 23.33° C | 59% | 1019.6 hPa | 0 mm | - | 654 W/m² | - |
| 1777751523 | 22.78° C | 55% | 1019.6 hPa | 0 mm | - | 524 W/m² | - |
| 1777751220 | 22.78° C | 57% | 1019.5 hPa | 0 mm | - | 723 W/m² | - |
| 1777750916 | 22.78° C | 58% | 1019.6 hPa | 0 mm | - | 728 W/m² | - |
| 1777750613 | 22.78° C | 55% | 1019.7 hPa | 0 mm | - | 747 W/m² | - |
| 1777750310 | 22.78° C | 56% | 1019.8 hPa | 0 mm | - | 703 W/m² | - |
| 1777750005 | 22.78° C | 57% | 1019.7 hPa | 0 mm | - | 761 W/m² | - |
| 1777749703 | 22.78° C | 57% | 1019.9 hPa | 0 mm | - | 798 W/m² | - |
| 1777749400 | 22.22° C | 59% | 1019.7 hPa | 0 mm | - | 725 W/m² | - |
* Rain latest hour (hover to see other rain measurements)
** Current wind speed in m/s (hover to see current wind gust speed)